• Join FlightAware (Why Join?)
  • Login
  • US Flag 
08:12PM EST


 

Airport Tracker/Info


-or-


 

Live Flight TrackerFlight Track Log ✈ TPA726 ✈ 24-Jul-2013 ✈ SKRG / MDE - KMIA

Flight Track Log - Related Links

Times and Time Zones

All times are in EDT time to prevent confusion due to time zone crossing. See the TPA726 flight status page for this flight to view local times or setup timezone preferences in your user account.

Time Position Orientation Groundspeed Altitude Reporting Facility
EDT Latitude Longitude Course Direction KTS MPH feet Rate Location/Type
07:04AM 7.7883 -75.7953 347° North  Level Estimated
07:05AM 7.9042 -75.8220 347° North  Level Estimated
07:06AM 8.0202 -75.8487 347° North  Level Estimated
07:07AM 8.1362 -75.8755 347° North  Level Estimated
07:08AM 8.2521 -75.9022 347° North  Level Estimated
07:09AM 8.3681 -75.9290 347° North  Level Estimated
07:10AM 8.4840 -75.9557 347° North  Level Estimated
07:11AM 8.6000 -75.9825 347° North  Level Estimated
07:12AM 8.7160 -76.0093 347° North  Level Estimated
07:13AM 8.8319 -76.0361 347° North  Level Estimated
07:14AM 8.9479 -76.0630 347° North  Level Estimated
07:15AM 9.0638 -76.0898 347° North  Level Estimated
07:16AM 9.1798 -76.1167 347° North  Level Estimated
07:17AM 9.2957 -76.1436 347° North  Level Estimated
07:18AM 9.4117 -76.1705 347° North  Level Estimated
07:19AM 9.5276 -76.1974 347° North  Level Estimated
07:20AM 9.6460 -76.2136 352° North  Level FlightAware Approximate
07:21AM 9.7644 -76.2299 352° North  Level FlightAware Approximate
07:22AM 9.8828 -76.2461 352° North  Level FlightAware Approximate
07:23AM 10.0012 -76.2624 352° North  Level FlightAware Approximate
07:24AM 10.1196 -76.2787 352° North  Level FlightAware Approximate
07:25AM 10.2381 -76.2950 352° North  Level FlightAware Approximate
07:26AM 10.3565 -76.3113 352° North  Level FlightAware Approximate
07:27AM 10.4748 -76.3276 352° North  Level FlightAware Approximate
07:28AM 10.5933 -76.3439 352° North  Level FlightAware Approximate
07:29AM 10.7116 -76.3603 352° North  Level FlightAware Approximate
07:30AM 10.8301 -76.3766 352° North  Level FlightAware Approximate
07:30AM 25.6836 -79.9761 352° North 276 318 5,000  Level Miami Center
07:31AM 10.9485 -76.3930 352° North  Level FlightAware Approximate
07:31AM 25.7453 -80.0261 324° Northwest 274 315 4,000  Level Miami Center
07:32AM 11.0668 -76.4094 352° North  Level FlightAware Approximate
07:32AM 25.7856 -80.0872 306° West 241 277 3,100  Level Miami Center
07:33AM 11.1853 -76.4258 352° North  Level FlightAware Approximate
07:33AM 25.7903 -80.1567 274° West 208 239 2,200  Level Miami Center
07:34AM 11.3036 -76.4422 352° North  Level FlightAware Approximate
07:34AM 25.7889 -80.2189 269° West 194 223 1,100  Level Miami Center
07:35AM 11.4221 -76.4586 352° North  Level FlightAware Approximate
07:35AM 25.7836 -80.2672 263° West 149 171 300  Level Miami Center
07:37AM 25.7833 -80.2833 77° East  Level FlightAware Approximate